Map

Track Data

SID SEASON NUMBER BASIN SUBBASIN NAME ISO_TIME NATURE LAT LON WMO_WIND WMO_PRES WMO_AGENCY TRACK_TYPE DIST2LAND LANDFALL IFLAG USA_AGENCY USA_ATCF_ID USA_LAT USA_LON USA_RECORD USA_STATUS USA_WIND USA_PRES USA_SSHS USA_R34_NE USA_R34_SE USA_R34_SW USA_R34_NW USA_R50_NE USA_R50_SE USA_R50_SW USA_R50_NW USA_R64_NE USA_R64_SE USA_R64_SW USA_R64_NW USA_POCI USA_ROCI USA_RMW USA_EYE TOKYO_LAT TOKYO_LON TOKYO_GRADE TOKYO_WIND TOKYO_PRES TOKYO_R50_DIR TOKYO_R50_LONG TOKYO_R50_SHORT TOKYO_R30_DIR TOKYO_R30_LONG TOKYO_R30_SHORT TOKYO_LAND CMA_LAT CMA_LON CMA_CAT CMA_WIND CMA_PRES HKO_LAT HKO_LON HKO_CAT HKO_WIND HKO_PRES NEWDELHI_LAT NEWDELHI_LON NEWDELHI_GRADE NEWDELHI_WIND NEWDELHI_PRES NEWDELHI_CI NEWDELHI_DP NEWDELHI_POCI REUNION_LAT REUNION_LON REUNION_TYPE REUNION_WIND REUNION_PRES REUNION_TNUM REUNION_CI REUNION_RMW REUNION_R34_NE REUNION_R34_SE REUNION_R34_SW REUNION_R34_NW REUNION_R50_NE REUNION_R50_SE REUNION_R50_SW REUNION_R50_NW REUNION_R64_NE REUNION_R64_SE REUNION_R64_SW REUNION_R64_NW BOM_LAT BOM_LON BOM_TYPE BOM_WIND BOM_PRES BOM_TNUM BOM_CI BOM_RMW BOM_R34_NE BOM_R34_SE BOM_R34_SW BOM_R34_NW BOM_R50_NE BOM_R50_SE BOM_R50_SW BOM_R50_NW BOM_R64_NE BOM_R64_SE BOM_R64_SW BOM_R64_NW BOM_ROCI BOM_POCI BOM_EYE BOM_POS_METHOD BOM_PRES_METHOD NADI_LAT NADI_LON NADI_CAT NADI_WIND NADI_PRES WELLINGTON_LAT WELLINGTON_LON WELLINGTON_WIND WELLINGTON_PRES DS824_LAT DS824_LON DS824_STAGE DS824_WIND DS824_PRES TD9636_LAT TD9636_LON TD9636_STAGE TD9636_WIND TD9636_PRES TD9635_LAT TD9635_LON TD9635_WIND TD9635_PRES TD9635_ROCI NEUMANN_LAT NEUMANN_LON NEUMANN_CLASS NEUMANN_WIND NEUMANN_PRES MLC_LAT MLC_LON MLC_CLASS MLC_WIND MLC_PRES USA_GUST BOM_GUST BOM_GUST_PER REUNION_GUST REUNION_GUST_PER USA_SEAHGT USA_SEARAD_NE USA_SEARAD_SE USA_SEARAD_SW USA_SEARAD_NW STORM_SPEED STORM_DIR
1965055S13085 1965 27 SI MM GAY-OLIVE:OLIVE:PEGGY 1965-02-24 00:00:00 TS -12.7000 84.6000 main 2000 2000 ____________O_ -1 -12.7000 84.6000 TC 25 12 0
1965055S13085 1965 27 SI MM GAY-OLIVE:OLIVE:PEGGY 1965-02-24 03:00:00 TS -13.3001 84.5750 main 2041 2041 ____________P_ -1 -13.3001 84.5750 TC 25 6 185
1965055S13085 1965 27 SI MM GAY-OLIVE:OLIVE:PEGGY 1965-02-24 06:00:00 TS -13.3000 84.5500 main 2041 2041 O________OO_O_ jtwc_sh SH321965 -12.7000 84.6000 -1 -12.7000 84.6000 TC 25 -12.7000 84.6000 7 -13.9000 84.5000 TC 25 5 197
1965055S13085 1965 27 SI MM GAY-OLIVE:OLIVE:PEGGY 1965-02-24 09:00:00 TS -13.7795 84.4225 main 2093 2093 P________PP_P_ SH321965 -13.3051 84.5052 -1 -13.3051 84.5052 TC 25 -13.3126 84.4521 7 -14.4873 84.3249 TC 25 10 197
1965055S13085 1965 27 SI MM GAY-OLIVE:OLIVE:PEGGY 1965-02-24 12:00:00 TS -14.2408 84.2546 main 2130 2130 O________OP_O_ jtwc_sh SH321965 -13.9000 84.4000 -1 -13.9000 84.4000 TC 25 -13.9102 84.3031 7 -15.0000 84.0000 TC 25 10 202
1965055S13085 1965 27 SI MM GAY-OLIVE:OLIVE:PEGGY 1965-02-24 15:00:00 TS -14.6988 84.0361 main 2191 2191 P________PP_P_ SH321965 -14.4723 84.2597 -1 -14.4723 84.2597 TC 25 -14.4777 84.1525 7 -15.3728 83.4725 TC 25 11 209
1965055S13085 1965 27 SI MM GAY-OLIVE:OLIVE:PEGGY 1965-02-24 18:00:00 TS -15.1750 83.7250 main 2252 2252 O________OO_O_ jtwc_sh SH321965 -15.0000 84.0000 -1 -15.0000 84.0000 TC 25 -15.0000 84.0000 7 -15.7000 82.9000 TC 25 12 216
1965055S13085 1965 27 SI MM GAY-OLIVE:OLIVE:PEGGY 1965-02-24 21:00:00 TS -15.6407 83.3325 main 2313 2313 P________PP_P_ SH321965 -15.4877 83.5377 -1 -15.4877 83.5377 TC 25 -15.4648 83.8442 7 -16.1225 82.4102 TC 25 12 221
1965055S13085 1965 27 SI MM GAY-OLIVE:OLIVE:PEGGY 1965-02-25 00:00:00 TS -16.0424 82.9449 main 2375 2375 O________OP_O_ jtwc_sh SH321965 -15.9000 83.0000 -1 -15.9000 83.0000 TC 25 -15.8697 83.6798 7 -16.5000 82.1000 TC 25 10 223
1965055S13085 1965 27 SI MM GAY-OLIVE:OLIVE:PEGGY 1965-02-25 03:00:00 TS -16.3606 82.6294 main 2429 2429 P________PP_P_ SH321965 -16.2451 82.4676 -1 -16.2451 82.4676 TC 25 -16.2148 83.5005 7 -16.7374 82.0822 TC 25 8 222
1965055S13085 1965 27 SI MM GAY-OLIVE:OLIVE:PEGGY 1965-02-25 06:00:00 TS -16.6000 82.4250 main 2459 2459 O________OO_O_ jtwc_sh SH321965 -16.5000 82.1000 -1 -16.5000 82.1000 TC 25 -16.5000 83.3000 7 -16.9000 82.2000 TC 25 5 210
1965055S13085 1965 27 SI MM GAY-OLIVE:OLIVE:PEGGY 1965-02-25 09:00:00 TS -16.7780 82.3789 main 2474 2474 P________PP_P_ SH321965 -16.6649 82.0747 -1 -16.6649 82.0747 TC 25 -16.7325 83.0713 7 -17.0500 82.2949 TC 25 4 199
1965055S13085 1965 27 SI MM GAY-OLIVE:OLIVE:PEGGY 1965-02-25 12:00:00 TS -16.9318 82.2993 main 2489 2489 O________OP_O_ jtwc_sh SH321965 -16.8000 82.2000 -1 -16.8000 82.2000 TC 25 -16.9100 82.8221 7 -17.2000 82.3000 TC 25 4 213
1965055S13085 1965 27 SI MM GAY-OLIVE:OLIVE:PEGGY 1965-02-25 15:00:00 TS -17.1147 82.1512 main 2512 2512 P________PP_P_ SH321965 -17.0000 82.2949 -1 -17.0000 82.2949 TC 25 -17.0575 82.5619 7 -17.4001 82.0951 TC 25 5 223
1965055S13085 1965 27 SI MM GAY-OLIVE:OLIVE:PEGGY 1965-02-25 18:00:00 TS -17.2902 81.9480 main 2551 2533 O________OO_O_ jtwc_sh SH321965 -17.2000 82.3000 -1 -17.2000 82.3000 TC 25 -17.2000 82.3000 7 -17.6000 81.8000 TC 25 6 234
1965055S13085 1965 27 SI MM GAY-OLIVE:OLIVE:PEGGY 1965-02-25 21:00:00 TS -17.4464 81.6754 main 2533 2500 P________PP_P_ SH321965 -17.3501 82.0950 -1 -17.3501 82.0950 TC 25 -17.3953 82.0379 7 -17.7725 81.5350 TC 25 6 246
1965055S13085 1965 27 SI MM GAY-OLIVE:OLIVE:PEGGY 1965-02-26 00:00:00 TS -17.5413 81.3570 main 2500 2466 O________OP_O_ jtwc_sh SH321965 -17.5000 81.8000 -1 -17.5000 81.8000 TC 25 -17.5875 81.7777 7 -17.9000 81.3000 TC 25 6 250
1965055S13085 1965 27 SI MM GAY-OLIVE:OLIVE:PEGGY 1965-02-26 03:00:00 TS -17.6452 81.1157 main 2466 2444 P________PP_P_ SH321965 -17.7075 81.5351 -1 -17.7075 81.5351 TC 25 -17.7610 81.5286 7 -17.9649 81.1424 TC 27 5 245
1965055S13085 1965 27 SI MM GAY-OLIVE:OLIVE:PEGGY 1965-02-26 06:00:00 TS -17.7405 80.9121 main 2444 2421 O________OO_O_ jtwc_sh SH321965 -17.9000 81.3000 -1 -17.9000 81.3000 TC 25 -17.9000 81.3000 7 -18.0000 81.0000 TC 30 4 243
1965055S13085 1965 27 SI MM GAY-OLIVE:OLIVE:PEGGY 1965-02-26 09:00:00 TS -17.8279 80.7301 main 2421 2408 P________PP_P_ SH321965 -18.0299 81.1424 -1 -18.0299 81.1424 TC 25 -17.9979 81.1114 7 -18.0575 80.8150 TC 32 4 241
1965055S13085 1965 27 SI MM GAY-OLIVE:OLIVE:PEGGY 1965-02-26 12:00:00 TS -17.9200 80.5678 main 2408 2386 O________OP_O_ jtwc_sh SH321965 -18.1000 81.0000 -1 -18.1000 81.0000 TC 25 -18.0597 80.9423 7 -18.1000 80.6000 TC 35 4 246
1965055S13085 1965 27 SI MM GAY-OLIVE:OLIVE:PEGGY 1965-02-26 15:00:00 TS -17.9737 80.3893 main 2386 2365 P________PP_P_ SH321965 -18.1150 80.8075 -1 -18.1150 80.8075 TC 30 -18.0917 80.7771 7 -18.1150 80.3500 TC 35 4 257
1965055S13085 1965 27 SI MM GAY-OLIVE:OLIVE:PEGGY 1965-02-26 18:00:00 TS -18.0031 80.1970 main 2365 2344 O________OO_O_ jtwc_sh SH321965 -18.1000 80.6000 -1 -18.1000 80.6000 TC 35 -18.1000 80.6000 2 -18.1000 80.1000 TC 35 4 261
1965055S13085 1965 27 SI MM GAY-OLIVE:OLIVE:PEGGY 1965-02-26 21:00:00 TS -18.0341 80.0033 main 2344 2323 P________PP_P_ SH321965 -18.1075 80.4075 -1 -18.1075 80.4075 TC 35 -18.1086 80.4097 2 -18.0649 79.9150 TC 35 4 265
1965055S13085 1965 27 SI MM GAY-OLIVE:OLIVE:PEGGY 1965-02-27 00:00:00 TS -18.0368 79.7878 main 2323 2302 O________OP_O_ jtwc_sh SH321965 -18.1000 80.2000 -1 -18.1000 80.2000 TC 35 -18.0947 80.2026 2 -18.0000 79.7000 TC 35 4 274
1965055S13085 1965 27 SI MM GAY-OLIVE:OLIVE:PEGGY 1965-02-27 03:00:00 TS -18.0018 79.5395 main 2292 2273 P________PP_P_ SH321965 -18.0649 79.9725 -1 -18.0649 79.9725 TC 35 -18.0585 79.9692 2 -17.9075 79.3725 TC 35 5 283
1965055S13085 1965 27 SI MM GAY-OLIVE:OLIVE:PEGGY 1965-02-27 06:00:00 TS -17.9187 79.2624 main 2273 2244 O________OO_O_ jtwc_sh SH321965 -18.0000 79.7000 -1 -18.0000 79.7000 TC 35 -18.0000 79.7000 2 -17.8000 79.0000 TC 35 6 291
1965055S13085 1965 27 SI MM GAY-OLIVE:OLIVE:PEGGY 1965-02-27 09:00:00 TS -17.7909 78.9682 main 2244 2215 P________PP_P_ SH321965 -17.9075 79.3650 -1 -17.9075 79.3650 TC 35 -17.9259 79.3736 2 -17.7000 78.6425 TC 35 6 297
1965055S13085 1965 27 SI MM GAY-OLIVE:OLIVE:PEGGY 1965-02-27 12:00:00 TS -17.6288 78.6644 main 2217 2188 O________OP_O_ jtwc_sh SH321965 -17.8000 79.0000 -1 -17.8000 79.0000 TC 35 -17.8303 79.0148 2 -17.6000 78.3000 TC 35 7 300
1965055S13085 1965 27 SI MM GAY-OLIVE:OLIVE:PEGGY 1965-02-27 15:00:00 TS -17.4590 78.3528 main 2188 2161 P________PP_P_ SH321965 -17.7000 78.6350 -1 -17.7000 78.6350 TC 35 -17.7196 78.6486 2 -17.5075 77.9851 TC 32 7 301
1965055S13085 1965 27 SI MM GAY-OLIVE:OLIVE:PEGGY 1965-02-27 18:00:00 TS -17.2751 78.0562 main 2161 2135 O________OO_O_ jtwc_sh SH321965 -17.6000 78.3000 -1 -17.6000 78.3000 TC 35 -17.6000 78.3000 2 -17.4000 77.7000 TC 30 6 304
1965055S13085 1965 27 SI MM GAY-OLIVE:OLIVE:PEGGY 1965-02-27 21:00:00 TS -17.0987 77.8018 main 2135 2117 P________PP_P_ SH321965 -17.5074 78.0426 -1 -17.5074 78.0426 TC 30 -17.5021 78.0160 2 -17.2724 77.4576 TC 30 6 308
1965055S13085 1965 27 SI MM GAY-OLIVE:OLIVE:PEGGY 1965-02-28 00:00:00 TS -16.9118 77.5688 main 2119 2101 O________OP_O_ jtwc_sh SH321965 -17.4000 77.8000 -1 -17.4000 77.8000 TC 25 -17.3944 77.7506 2 -17.1000 77.2000 TC 30 6 313
1965055S13085 1965 27 SI MM GAY-OLIVE:OLIVE:PEGGY 1965-02-28 03:00:00 TS -16.6991 77.3524 main 2104 2086 P________PP_P_ SH321965 -17.2724 77.5151 -1 -17.2724 77.5151 TC 25 -17.2646 77.4849 2 -16.8650 76.8650 TC 30 6 317
1965055S13085 1965 27 SI MM GAY-OLIVE:OLIVE:PEGGY 1965-02-28 06:00:00 TS -16.4687 77.1377 main 2079 2064 O________OO_O_ jtwc_sh SH321965 -17.1000 77.2000 -1 -17.1000 77.2000 TC 25 -17.1000 77.2000 1 -16.6000 76.5000 TC 30 6 318
1965055S13085 1965 27 SI MM GAY-OLIVE:OLIVE:PEGGY 1965-02-28 09:00:00 TS -16.2282 76.9045 main 2067 2049 P________PP_P_ SH321965 -16.8650 76.8575 -1 -16.8650 76.8575 TC 25 -16.8900 76.8674 1 -16.3499 76.1501 TC 30 7 316
1965055S13085 1965 27 SI MM GAY-OLIVE:OLIVE:PEGGY 1965-02-28 12:00:00 TS -15.9931 76.6644 main 2052 2028 O________OP_O_ jtwc_sh SH321965 -16.6000 76.5000 -1 -16.6000 76.5000 TC 25 -16.6450 76.5148 1 -16.1000 75.8000 TC 30 6 314
1965055S13085 1965 27 SI MM GAY-OLIVE:OLIVE:PEGGY 1965-02-28 15:00:00 TS -15.7822 76.4291 main 2028 2014 P________PP_P_ SH321965 -16.3499 76.1501 -1 -16.3499 76.1501 TC 25 -16.3775 76.1549 1 -15.8575 75.4426 TC 30 6 312
1965055S13085 1965 27 SI MM GAY-OLIVE:OLIVE:PEGGY 1965-02-28 18:00:00 TS -15.5861 76.1999 main 2014 2001 O________OO_O_ jtwc_sh SH321965 -16.1000 75.8000 -1 -16.1000 75.8000 TC 25 -16.1000 75.8000 1 -15.6000 75.1000 TC 30 6 311
1965055S13085 1965 27 SI MM GAY-OLIVE:OLIVE:PEGGY 1965-02-28 21:00:00 TS -15.3967 75.9750 main 2001 1978 P________PP_P_ SH321965 -15.8575 75.4426 -1 -15.8575 75.4426 TC 25 -15.8361 75.4599 1 -15.3075 74.7850 TC 30 6 309
1965055S13085 1965 27 SI MM GAY-OLIVE:OLIVE:PEGGY 1965-03-01 00:00:00 TS -15.2206 75.7285 main 1978 1951 O________OP_O_ jtwc_sh SH321965 -15.6000 75.1000 -1 -15.6000 75.1000 TC 25 -15.5649 75.1278 1 -15.0000 74.5000 TC 30 6 303
1965055S13085 1965 27 SI MM GAY-OLIVE:OLIVE:PEGGY 1965-03-01 03:00:00 TS -15.0540 75.4262 main 1951 1929 P________PP_P_ SH321965 -15.3074 74.7926 -1 -15.3074 74.7926 TC 25 -15.2862 74.8068 1 -14.6999 74.2501 TC 30 7 296
1965055S13085 1965 27 SI MM GAY-OLIVE:OLIVE:PEGGY 1965-03-01 06:00:00 TS -14.9159 75.0876 main 1929 1903 O________OO_O_ jtwc_sh SH321965 -15.0000 74.5000 -1 -15.0000 74.5000 TC 25 -15.0000 74.5000 1 -14.4000 74.0000 TC 30 7 291
1965055S13085 1965 27 SI MM GAY-OLIVE:OLIVE:PEGGY 1965-03-01 09:00:00 TS -14.8023 74.7458 main 1893 1867 P________PP_P_ SH321965 -14.7000 74.1926 -1 -14.7000 74.1926 TC 25 -14.6540 74.2309 1 -14.0699 73.7225 TC 30 7 287
1965055S13085 1965 27 SI MM GAY-OLIVE:OLIVE:PEGGY 1965-03-01 12:00:00 TS -14.7137 74.3965 main 1867 1841 O________OP_O_ jtwc_sh SH321965 -14.4000 73.9000 -1 -14.4000 73.9000 TC 25 -14.3095 73.9723 1 -13.8000 73.4000 TC 30 7 284
1965055S13085 1965 27 SI MM GAY-OLIVE:OLIVE:PEGGY 1965-03-01 15:00:00 TS -14.6292 74.0478 main 1831 1802 P________PP_P_ SH321965 -14.0699 73.6650 -1 -14.0699 73.6650 TC 25 -14.0102 73.7025 1 -13.6325 73.0149 TC 30 7 280
1965055S13085 1965 27 SI MM GAY-OLIVE:OLIVE:PEGGY 1965-03-01 18:00:00 TS -14.5892 73.6875 main 1802 1762 O________OO_O_ jtwc_sh SH321965 -13.8000 73.4000 -1 -13.8000 73.4000 TC 25 -13.8000 73.4000 1 -13.6000 72.6000 TC 30 7 272
1965055S13085 1965 27 SI MM GAY-OLIVE:OLIVE:PEGGY 1965-03-01 21:00:00 TS -14.6035 73.3042 main 1762 1728 P________PP_P_ SH321965 -13.6325 73.0224 -1 -13.6325 73.0224 TC 25 -13.6954 73.0038 1 -13.6976 72.1702 TC 30 7 263
1965055S13085 1965 27 SI MM GAY-OLIVE:OLIVE:PEGGY 1965-03-02 00:00:00 TS -14.6732 72.9472 main 1718 1694 O________OP_O_ jtwc_sh SH321965 -13.6000 72.6000 -1 -13.6000 72.6000 TC 25 -13.6856 72.5779 1 -13.9000 71.8000 TC 30 6 254
1965055S13085 1965 27 SI MM GAY-OLIVE:OLIVE:PEGGY 1965-03-02 03:00:00 TS -14.7763 72.6650 main 1694 1670 P________PP_P_ SH321965 -13.6976 72.1702 -1 -13.6976 72.1702 TC 25 -13.7579 72.1630 1 -14.1349 71.5699 TC 30 5 243
1965055S13085 1965 27 SI MM GAY-OLIVE:OLIVE:PEGGY 1965-03-02 06:00:00 TS -14.9193 72.4499 main 1660 1641 O________OO_O_ jtwc_sh SH321965 -13.9000 71.8000 -1 -13.9000 71.8000 TC 25 -13.9000 71.8000 1 -14.4000 71.4000 TC 30 5 230
1965055S13085 1965 27 SI MM GAY-OLIVE:OLIVE:PEGGY 1965-03-02 09:00:00 TS -15.0888 72.2794 main 1641 1613 P________PP_P_ SH321965 -14.1349 71.5699 -1 -14.1349 71.5699 TC 25 -14.0890 71.5386 1 -14.6575 71.2000 TC 30 5 220
1965055S13085 1965 27 SI MM GAY-OLIVE:OLIVE:PEGGY 1965-03-02 12:00:00 TS -15.2799 72.1416 main 1613 1594 O________OP_O_ jtwc_sh SH321965 -14.4000 71.4000 -1 -14.4000 71.4000 TC 25 -14.3396 71.3326 1 -14.9000 71.0000 TC 30 5 214
1965055S13085 1965 27 SI MM GAY-OLIVE:OLIVE:PEGGY 1965-03-02 15:00:00 TS -15.4752 72.0054 main 1594 1580 P________PP_P_ SH321965 -14.6575 71.2000 -1 -14.6575 71.2000 TC 25 -14.6204 71.1604 1 -15.2050 70.7852 TC 30 5 216
1965055S13085 1965 27 SI MM GAY-OLIVE:OLIVE:PEGGY 1965-03-02 18:00:00 TS -15.6432 71.8686 main 1580 1556 O________OO_O_ jtwc_sh SH321965 -14.9000 71.0000 -1 -14.9000 71.0000 TC 25 -14.9000 71.0000 1 -15.3000 70.6000 TC 30 4 229
1965055S13085 1965 27 SI MM GAY-OLIVE:OLIVE:PEGGY 1965-03-02 21:00:00 TS -15.7438 71.6887 main 1556 1532 P________PP_P_ SH321965 -15.1000 70.7924 -1 -15.1000 70.7924 TC 25 -15.1159 70.8055 1 -14.9471 70.3491 TC 32 4 239
1965055S13085 1965 27 SI MM GAY-OLIVE:OLIVE:PEGGY 1965-03-03 00:00:00 TS -15.8409 71.5275 main 1532 1524 O________OP_O_ jtwc_sh SH321965 -15.3000 70.6000 -1 -15.3000 70.6000 TC 25 -15.3275 70.6198 1 -14.4000 70.4000 TC 35 3 225
1965055S13085 1965 27 SI MM GAY-OLIVE:OLIVE:PEGGY 1965-03-03 03:00:00 TS -15.9699 71.4532 main 1524 1510 P________PP_P_ SH321965 -15.5350 70.4350 -1 -15.5350 70.4350 TC 30 -15.5503 70.4492 1 -13.7864 71.2465 TC 35 3 208
1965055S13085 1965 27 SI MM GAY-OLIVE:OLIVE:PEGGY 1965-03-03 06:00:00 TS -16.1085 71.3818 reunion main 1510 1479 O____O___OO_O_ jtwc_sh SH321965 -15.8000 70.3000 -1 -13.5000 72.0000 3 9.90000 -15.8000 70.3000 TC 35 -15.8000 70.3000 2 -13.5000 72.0000 TC 35 5 210
1965055S13085 1965 27 SI MM GAY-OLIVE:OLIVE:PEGGY 1965-03-03 09:00:00 TS -16.4182 71.1872 main 1479 1445 P____P___PP_P_ SH321965 -16.0850 70.1924 -1 -14.1978 71.5559 3 -16.0850 70.1924 TC 35 -16.0881 70.1783 2 -14.0150 71.7507 TC 37 8 210
1965055S13085 1965 27 SI MM GAY-OLIVE:OLIVE:PEGGY 1965-03-03 12:00:00 TS -16.8120 70.9574 reunion main 1445 1411 O____O___OP_O_ jtwc_sh SH321965 -16.4000 70.1000 -1 -14.8000 71.2000 99 9.90000 -16.4000 70.1000 TC 35 -16.4049 70.0772 2 -14.8000 71.2000 TC 40 9 208
1965055S13085 1965 27 SI MM GAY-OLIVE:OLIVE:PEGGY 1965-03-03 15:00:00 TS -17.1871 70.7640 main 1411 1379 P____P___PP_P_ SH321965 -16.7425 70.0000 -1 -15.2573 70.9844 99 -16.7425 70.0000 TC 35 -16.7443 69.9876 2 -15.2573 70.9844 TC 45 9 204
1965055S13085 1965 27 SI MM GAY-OLIVE:OLIVE:PEGGY 1965-03-03 18:00:00 TS -17.6334 70.5724 reunion main 1379 1345 O____O___OO_O_ jtwc_sh SH321965 -17.1000 69.9000 -1 -15.7000 70.8000 99 9.90000 -17.1000 69.9000 TC 35 -17.1000 69.9000 2 -15.7000 70.8000 TC 50 10 203
1965055S13085 1965 27 SI MM GAY-OLIVE:OLIVE:PEGGY 1965-03-03 21:00:00 TS -18.1004 70.3581 main 1345 1313 P____P___PP_P_ SH321965 -17.4425 69.7999 -1 -16.2851 70.4853 99 -17.4425 69.7999 TC 35 -17.4485 69.7799 2 -16.2851 70.4853 TC 55 10 202
1965055S13085 1965 27 SI MM GAY-OLIVE:OLIVE:PEGGY 1965-03-04 00:00:00 TS -18.5792 70.1625 reunion main 1313 1285 O____O___OP_O_ jtwc_sh SH321965 -17.8000 69.7000 -1 -16.9000 70.2000 99 9.90000 -17.8000 69.7000 TC 35 -17.8126 69.6629 2 -16.9000 70.2000 TC 60 10 199
1965055S13085 1965 27 SI MM GAY-OLIVE:OLIVE:PEGGY 1965-03-04 03:00:00 TS -19.0640 70.0125 main 1283 1267 P____P___PP_P_ SH321965 -18.1850 69.5925 -1 -17.4649 70.0622 99 -18.1850 69.5925 TC 35 -18.1954 69.5644 2 -17.4649 70.0622 TC 62 10 194
1965055S13085 1965 27 SI MM GAY-OLIVE:OLIVE:PEGGY 1965-03-04 06:00:00 TS -19.5499 69.9052 reunion main 1267 1252 O____O___OO_O_ jtwc_sh SH321965 -18.6000 69.5000 -1 -18.0000 70.0000 4 9.90000 -18.6000 69.5000 TC 35 -18.6000 69.5000 2 -18.0000 70.0000 TC 65 10 190
1965055S13085 1965 27 SI MM GAY-OLIVE:OLIVE:PEGGY 1965-03-04 09:00:00 TS -20.0317 69.8270 main 1252 1250 P____P___PP_P_ SH321965 -19.0425 69.4201 -1 -18.5075 69.9424 4 -19.0425 69.4201 TC 35 -19.0568 69.4767 2 -18.5075 69.9424 TC 67 10 187
1965055S13085 1965 27 SI MM GAY-OLIVE:OLIVE:PEGGY 1965-03-04 12:00:00 TS -20.5033 69.7878 reunion main 1250 1250 O____O___OP_O_ jtwc_sh SH321965 -19.5000 69.4000 -1 -19.0000 69.9000 99 9.90000 -19.5000 69.4000 TC 35 -19.5299 69.4897 2 -19.0000 69.9000 TC 70 9 182
1965055S13085 1965 27 SI MM GAY-OLIVE:OLIVE:PEGGY 1965-03-04 15:00:00 TS -20.9674 69.7775 main 1250 1250 P____P___PP_P_ SH321965 -19.9725 69.4773 -1 -19.5075 69.8425 99 -19.9725 69.4773 TC 35 -19.9881 69.5330 2 -19.5075 69.8425 TC 70 9 0
1965055S13085 1965 27 SI MM GAY-OLIVE:OLIVE:PEGGY 1965-03-04 18:00:00 TS -21.3944 69.8000 reunion main 1252 1252 O____O___OO_O_ jtwc_sh SH321965 -20.4000 69.6000 -1 -20.0000 69.8000 99 9.90000 -20.4000 69.6000 TC 35 -20.4000 69.6000 2 -20.0000 69.8000 TC 70 8 176
1965055S13085 1965 27 SI MM GAY-OLIVE:OLIVE:PEGGY 1965-03-04 21:00:00 TS -21.7625 69.8370 main 1255 1255 P____P___PP_P_ SH321965 -20.7300 69.7001 -1 -20.4575 69.7924 99 -20.7300 69.7001 TC 35 -20.7091 69.6785 2 -20.4800 69.7775 TC 70 7 174
1965055S13085 1965 27 SI MM GAY-OLIVE:OLIVE:PEGGY 1965-03-05 00:00:00 TS -22.0858 69.8864 reunion main 1269 1269 O____O___OP_O_ jtwc_sh SH321965 -21.0000 69.8000 -1 -20.9000 69.8000 99 9.90000 -21.0000 69.8000 TC 35 -20.9725 69.7776 2 -20.9000 69.8000 TC 70 6 172
1965055S13085 1965 27 SI MM GAY-OLIVE:OLIVE:PEGGY 1965-03-05 03:00:00 TS -22.3808 69.9320 main 1274 1274 P____P___PP_P_ SH321965 -21.2350 69.9001 -1 -21.3500 69.8000 99 -21.2350 69.9001 TC 35 -21.2247 69.8879 2 -21.2075 69.8850 TC 67 6 171
1965055S13085 1965 27 SI MM GAY-OLIVE:OLIVE:PEGGY 1965-03-05 06:00:00 TS -22.6667 69.9778 reunion main 1289 1289 O____O___OO_O_ jtwc_sh SH321965 -21.5000 70.0000 -1 -21.8000 69.8000 4 9.90000 -21.5000 70.0000 TC 35 -21.5000 70.0000 2 -21.5000 70.0000 TC 65 6 173
1965055S13085 1965 27 SI MM GAY-OLIVE:OLIVE:PEGGY 1965-03-05 09:00:00 TS -22.9848 70.0227 main 1295 1295 P____P___PP_P_ SH321965 -21.8850 70.1000 -1 -22.2275 69.7926 4 -21.8850 70.1000 TC 35 -21.8585 70.1120 2 -21.8925 70.1000 TC 62 7 172
1965055S13085 1965 27 SI MM GAY-OLIVE:OLIVE:PEGGY 1965-03-05 12:00:00 TS -23.3158 70.0691 reunion main 1312 1312 O____O___OP_O_ jtwc_sh SH321965 -22.3000 70.2000 -1 -22.7000 69.8000 99 9.90000 -22.3000 70.2000 TC 35 -22.2425 70.2222 2 -22.3000 70.2000 TC 60 7 172
1965055S13085 1965 27 SI MM GAY-OLIVE:OLIVE:PEGGY 1965-03-05 15:00:00 TS -23.6534 70.1207 main 1322 1322 P____P___PP_P_ SH321965 -22.6650 70.3075 -1 -23.2700 69.8425 99 -22.6650 70.3075 TC 35 -22.6304 70.3213 2 -22.6650 70.3075 TC 50 7 173
1965055S13085 1965 27 SI MM GAY-OLIVE:OLIVE:PEGGY 1965-03-05 18:00:00 TS -23.9889 70.1667 reunion main 1341 1341 O____O___OO_O_ jtwc_sh SH321965 -23.0000 70.4000 -1 -23.9000 69.9000 99 9.90000 -23.0000 70.4000 TC 35 -23.0000 70.4000 2 -23.0000 70.4000 TC 40 7 174
1965055S13085 1965 27 SI MM GAY-OLIVE:OLIVE:PEGGY 1965-03-05 21:00:00 TS -24.3122 70.2009 main 1350 1350 P____P___PP_P_ SH321965 -23.3075 70.4650 -1 -24.5500 69.9500 99 -23.3075 70.4650 TC 30 -23.3377 70.4629 2 -23.3075 70.4650 TC 37 6 175
1965055S13085 1965 27 SI MM GAY-OLIVE:OLIVE:PEGGY 1965-03-06 00:00:00 TS -24.6280 70.2225 reunion main 1360 1360 O____O___OP_O_ jtwc_sh SH321965 -23.6000 70.5000 -1 -25.2000 70.0000 99 9.90000 -23.6000 70.5000 TC 25 -23.6524 70.5026 2 -23.6000 70.5000 TC 35 6 176
1965055S13085 1965 27 SI MM GAY-OLIVE:OLIVE:PEGGY 1965-03-06 03:00:00 TS -24.9536 70.2346 main 1375 1375 P____P___PP_P_ SH321965 -23.9075 70.5150 -1 -25.8375 70.0500 99 -23.9075 70.5150 TC 25 -23.9409 70.5159 2 -23.9075 70.5150 TC 35 6 0
1965055S13085 1965 27 SI MM GAY-OLIVE:OLIVE:PEGGY 1965-03-06 06:00:00 MX -25.2611 70.2333 reunion main 1386 1386 O____O___OO_O_ jtwc_sh SH321965 -24.2000 70.5000 -1 -26.4000 70.1000 5 9.90000 -24.2000 70.5000 TC 25 -24.2000 70.5000 1 -24.2000 70.5000 TC 35 6 0
1965055S13085 1965 27 SI MM GAY-OLIVE:OLIVE:PEGGY 1965-03-06 09:00:00 MX -25.5384 70.2228 main 1394 1394 P____P___PP_P_ SH321965 -24.4725 70.4650 -1 -26.8149 70.1279 5 -24.4725 70.4650 TC 25 -24.4692 70.4825 1 -24.4725 70.4650 TC 32 5 182
1965055S13085 1965 27 SI MM GAY-OLIVE:OLIVE:PEGGY 1965-03-06 12:00:00 TS -25.7783 70.2037 reunion main 1407 1407 O____O___OP_O_ jtwc_sh SH321965 -24.7000 70.4000 -1 -27.2000 70.2000 99 9.90000 -24.7000 70.4000 TC 25 -24.7047 70.4329 1 -24.7000 70.4000 TC 30 5 184
1965055S13085 1965 27 SI MM GAY-OLIVE:OLIVE:PEGGY 1965-03-06 15:00:00 TS -25.9900 70.1890 main 1415 1415 P____P___PP_P_ SH321965 -24.8800 70.3225 -1 -27.7076 70.3920 99 -24.8800 70.3225 TC 25 -24.8879 70.3419 1 -24.8800 70.3225 TC 30 3 187
1965055S13085 1965 27 SI MM GAY-OLIVE:OLIVE:PEGGY 1965-03-06 18:00:00 TS -26.1000 70.1647 reunion main 1420 1411 O____O___OO_O_ jtwc_sh SH321965 -25.0000 70.2000 -1 -28.2000 70.6000 99 9.90000 -25.0000 70.2000 TC 25 -25.0000 70.2000 1 -25.0000 70.2000 TC 30 2 201
1965055S13085 1965 27 SI MM GAY-OLIVE:OLIVE:PEGGY 1965-03-06 21:00:00 TS -26.1895 70.1023 main 1415 1401 P____P___PP_P_ SH321965 -25.0949 70.0301 -1 -28.5574 70.7154 99 -25.0949 70.0301 TC 25 -25.0665 70.0129 1 -25.0949 70.0301 TC 30 2 256
1965055S13085 1965 27 SI MM GAY-OLIVE:OLIVE:PEGGY 1965-03-07 00:00:00 TS -26.1424 69.9691 reunion main 1401 1379 O____O___OP_O_ jtwc_sh SH321965 -25.1000 69.8000 -1 -28.9000 70.8000 99 9.90000 -25.1000 69.8000 TC 25 -25.0574 69.7758 1 -25.1000 69.8000 MM 30 4 304
1965055S13085 1965 27 SI MM GAY-OLIVE:OLIVE:PEGGY 1965-03-07 03:00:00 TS -25.9913 69.7682 main 1379 1338 P____P___PP_P_ SH321965 -25.0025 69.5150 -1 -29.3225 70.8947 99 -25.0025 69.5150 TC 25 -24.9696 69.5007 1 -25.0025 69.5150 MM 30 7 319
1965055S13085 1965 27 SI MM GAY-OLIVE:OLIVE:PEGGY 1965-03-07 06:00:00 MX -25.6435 69.4870 reunion main 1333 1275 O____O___OO_O_ jtwc_sh SH321965 -24.8000 69.2000 -1 -29.8000 71.0000 5 9.90000 -24.8000 69.2000 TC 25 -24.8000 69.2000 1 -24.8000 69.2000 TC 30 11 328
1965055S13085 1965 27 SI MM GAY-OLIVE:OLIVE:PEGGY 1965-03-07 09:00:00 TS -25.0535 69.1287 main 1275 1223 P________PP_P_ SH321965 -24.5299 68.9076 -1 5 -24.5299 68.9076 TC 25 -24.5455 68.9205 1 -24.5299 68.9076 TC 30 13 330
1965055S13085 1965 27 SI MM GAY-OLIVE:OLIVE:PEGGY 1965-03-07 12:00:00 TS -24.5148 68.7593 main 1223 1153 O________OP_O_ jtwc_sh SH321965 -24.2000 68.6000 -1 -24.2000 68.6000 TC 25 -24.2168 68.6171 1 -24.2000 68.6000 TC 30 14 327
1965055S13085 1965 27 SI MM GAY-OLIVE:OLIVE:PEGGY 1965-03-07 15:00:00 TS -23.8511 68.2745 main 1153 1101 P________PP_P_ SH321965 -23.8499 68.2726 -1 -23.8499 68.2726 TC 25 -23.8547 68.2801 1 -23.8499 68.2726 TC 30 13 322
1965055S13085 1965 27 SI MM GAY-OLIVE:OLIVE:PEGGY 1965-03-07 18:00:00 TS -23.5000 67.9000 main 1101 1052 O________OO_O_ jtwc_sh SH321965 -23.5000 67.9000 -1 -23.5000 67.9000 TC 25 -23.5000 67.9000 1 -23.5000 67.9000 TC 30 10 312
1965055S13085 1965 27 SI MM GAY-OLIVE:OLIVE:PEGGY 1965-03-07 21:00:00 TS -23.1843 67.4724 main 1052 994 P________PP_P_ SH321965 -23.1849 67.4726 -1 -23.1849 67.4726 TC 25 -23.1823 67.4719 1 -23.1849 67.4726 TC 30 10 306
1965055S13085 1965 27 SI MM GAY-OLIVE:OLIVE:PEGGY 1965-03-08 00:00:00 TS -22.8956 67.0005 main 994 935 O________OP_O_ jtwc_sh SH321965 -22.9000 67.0000 -1 -22.9000 67.0000 TC 25 -22.8825 67.0019 1 -22.9000 67.0000 TC 30 11 302
1965055S13085 1965 27 SI MM GAY-OLIVE:OLIVE:PEGGY 1965-03-08 03:00:00 TS -22.6247 66.5072 main 935 875 P________PP_P_ SH321965 -22.6274 66.5076 -1 -22.6274 66.5076 TC 25 -22.6165 66.5061 1 -22.6274 66.5076 TC 30 12 305
1965055S13085 1965 27 SI MM GAY-OLIVE:OLIVE:PEGGY 1965-03-08 06:00:00 TS -22.2118 65.9412 reunion main 865 808 O________OO_O_ jtwc_sh SH321965 -22.4000 66.0000 -1 -22.4000 66.0000 TC 25 -22.4000 66.0000 1 -22.4000 66.0000 TC 30 13 303
1965055S13085 1965 27 SI MM GAY-OLIVE:OLIVE:PEGGY 1965-03-08 09:00:00 TS -21.9350 65.3707 main 808 745 P________PP_P_ SH321965 -22.2198 65.5001 -1 -22.2198 65.5001 TC 25 -22.1924 65.5109 1 -22.2198 65.5001 TC 30 11 292
1965055S13085 1965 27 SI MM GAY-OLIVE:OLIVE:PEGGY 1965-03-08 12:00:00 TS -21.7878 64.7977 reunion main 745 692 O________OP_O_ jtwc_sh SH321965 -22.1000 65.0000 -1 -22.1000 65.0000 TC 25 -22.0419 65.0141 1 -22.1000 65.0000 TC 30 11 281
1965055S13085 1965 27 SI MM GAY-OLIVE:OLIVE:PEGGY 1965-03-08 15:00:00 TS -21.7284 64.2444 main 682 644 P________PP_P_ SH321965 -22.0049 64.4999 -1 -22.0049 64.4999 TC 25 -21.9705 64.5103 1 -22.0049 64.4999 TC 30 10 268
1965055S13085 1965 27 SI MM GAY-OLIVE:OLIVE:PEGGY 1965-03-08 18:00:00 TS -21.8200 63.7600 reunion main 644 601 O________OO_O_ jtwc_sh SH321965 -22.0000 64.0000 -1 -22.0000 64.0000 TC 25 -22.0000 64.0000 1 -22.0000 64.0000 TC 30 9 254
1965055S13085 1965 27 SI MM GAY-OLIVE:OLIVE:PEGGY 1965-03-08 21:00:00 TS -21.9842 63.2705 main 601 559 P________PP_P_ SH321965 -22.0898 63.5073 -1 -22.0898 63.5073 TC 25 -22.1092 63.4386 1 -22.0898 63.5073 TC 32 10 245
1965055S13085 1965 27 SI MM GAY-OLIVE:OLIVE:PEGGY 1965-03-09 00:00:00 TS -22.2442 62.7753 reunion main 559 525 O________OP_O_ jtwc_sh SH321965 -22.3000 63.0000 -1 -22.3000 63.0000 TC 25 -22.3208 62.8764 1 -22.3000 63.0000 TC 35 11 238
1965055S13085 1965 27 SI MM GAY-OLIVE:OLIVE:PEGGY 1965-03-09 03:00:00 TS -22.5800 62.2423 main 521 501 P________PP_P_ SH321965 -22.5977 62.4276 -1 -22.5977 62.4276 TC 25 -22.6219 62.3509 1 -22.5977 62.4276 TC 35 12 231
1965055S13085 1965 27 SI MM GAY-OLIVE:OLIVE:PEGGY 1965-03-09 06:00:00 TS -23.0000 61.7600 reunion main 507 496 O________OO_O_ jtwc_sh SH321965 -23.0000 61.9000 -1 -23.0000 61.9000 TC 25 -23.0000 61.9000 1 -23.0000 61.9000 TC 35 12 222
1965055S13085 1965 27 SI MM GAY-OLIVE:OLIVE:PEGGY 1965-03-09 09:00:00 TS -23.4712 61.3847 main 507 500 P________PP_P_ SH321965 -23.4773 61.4900 -1 -23.4773 61.4900 TC 25 -23.4193 61.5268 1 -23.4773 61.4900 TC 35 12 211
1965055S13085 1965 27 SI MM GAY-OLIVE:OLIVE:PEGGY 1965-03-09 12:00:00 TS -24.0018 61.1072 reunion main 524 524 O________OP_O_ jtwc_sh SH321965 -24.0000 61.2000 -1 -24.0000 61.2000 TC 25 -23.9092 61.2359 1 -24.0000 61.2000 TC 35 12 202
1965055S13085 1965 27 SI MM GAY-OLIVE:OLIVE:PEGGY 1965-03-09 15:00:00 TS -24.5613 60.8998 main 563 563 P________PP_P_ SH321965 -24.4924 61.0195 -1 -24.4924 61.0195 TC 25 -24.4446 61.0270 1 -24.4924 61.0195 TC 35 12 196
1965055S13085 1965 27 SI MM GAY-OLIVE:OLIVE:PEGGY 1965-03-09 18:00:00 TS -25.1400 60.7600 reunion main 604 604 O________OO_O_ jtwc_sh SH321965 -25.0000 60.9000 -1 -25.0000 60.9000 TC 25 -25.0000 60.9000 1 -25.0000 60.9000 TC 35 12 194
1965055S13085 1965 27 SI MM GAY-OLIVE:OLIVE:PEGGY 1965-03-09 21:00:00 TS -25.7074 60.5906 main 652 652 P________PP_P_ SH321965 -25.5425 60.6981 -1 -25.5425 60.6981 TC 25 -25.5297 60.7191 1 -25.5425 60.6981 TC 35 12 191
1965055S13085 1965 27 SI MM GAY-OLIVE:OLIVE:PEGGY 1965-03-10 00:00:00 MX -26.2748 60.5266 reunion main 708 708 O________OP_O_ jtwc_sh SH321965 -26.1000 60.6000 -1 -26.1000 60.6000 TC 25 -26.0741 60.6332 1 -26.1000 60.6000 TC 35 11 0
1965055S13085 1965 27 SI MM GAY-OLIVE:OLIVE:PEGGY 1965-03-10 03:00:00 MX -26.8315 60.6075 main 763 763 P________PP_P_ SH321965 -26.6419 60.6732 -1 -26.6419 60.6732 TC 25 -26.6316 60.7053 1 -26.6419 60.6732 TC 32 12 163
1965055S13085 1965 27 SI MM GAY-OLIVE:OLIVE:PEGGY 1965-03-10 06:00:00 MX -27.4000 60.9000 reunion main 836 836 O________OO_O_ jtwc_sh SH321965 -27.2000 61.0000 -1 -27.2000 61.0000 TC 25 -27.2000 61.0000 1 -27.2000 61.0000 EX 30 14 149
1965055S13085 1965 27 SI MM GAY-OLIVE:OLIVE:PEGGY 1965-03-10 09:00:00 MX -28.0152 61.4109 main 917 917 P________PP_P_ SH321965 -27.7999 61.5875 -1 -27.7999 61.5875 TC 25 -27.8342 61.5643 1 -27.7999 61.5875 EX 30 16 137
1965055S13085 1965 27 SI MM GAY-OLIVE:OLIVE:PEGGY 1965-03-10 12:00:00 MX -28.5872 62.1697 reunion main 1012 1012 O________OP_O_ jtwc_sh SH321965 -28.4000 62.4000 -1 -28.4000 62.4000 TC 25 -28.4644 62.3562 1 -28.4000 62.4000 EX 30 18 127
1965055S13085 1965 27 SI MM GAY-OLIVE:OLIVE:PEGGY 1965-03-10 15:00:00 MX -29.1330 63.0842 main 1104 1104 P________PP_P_ SH321965 -28.9950 63.3120 -1 -28.9950 63.3120 TC 25 -29.0370 63.2959 1 -28.9950 63.3120 EX 30 20 120
1965055S13085 1965 27 SI MM GAY-OLIVE:OLIVE:PEGGY 1965-03-10 18:00:00 MX -29.5765 64.1412 reunion main 1203 1203 O________OO_O_ jtwc_sh SH321965 -29.5000 64.3000 -1 -29.5000 64.3000 TC 25 -29.5000 64.3000 7 -29.5000 64.3000 EX 30 20 111
1965055S13085 1965 27 SI MM GAY-OLIVE:OLIVE:PEGGY 1965-03-10 21:00:00 MX -29.8601 65.2565 main 1297 1297 P________PP_P_ SH321965 -29.8741 65.2430 -1 -29.8741 65.2430 TC 25 -29.8182 65.2970 7 -29.8741 65.2430 EX 30 19 106
1965055S13085 1965 27 SI MM GAY-OLIVE:OLIVE:PEGGY 1965-03-11 00:00:00 MX -30.0789 66.2189 main 1369 1369 O________OP_O_ jtwc_sh SH321965 -30.1000 66.2000 -1 -30.1000 66.2000 TC 25 -30.0155 66.2756 7 -30.1000 66.2000 EX 30 17 101
1965055S13085 1965 27 SI MM GAY-OLIVE:OLIVE:PEGGY 1965-03-11 03:00:00 MX -30.1744 67.2029 main 1442 1442 P________PP_P_ SH321965 -30.1892 67.1902 -1 -30.1892 67.1902 TC 25 -30.1301 67.2411 7 -30.1892 67.1902 EX 27 17 94
1965055S13085 1965 27 SI MM GAY-OLIVE:OLIVE:PEGGY 1965-03-11 06:00:00 MX -30.2000 68.2000 main 1510 O________OO_O_ jtwc_sh SH321965 -30.2000 68.2000 -1 -30.2000 68.2000 TC 25 -30.2000 68.2000 7 -30.2000 68.2000 EX 25 17 92

About IBTrACS Database

This database is a web-friendly format of International Best Track Archive for Climate Stewardship (IBTrACS), a global best track data archive curated by NOAA dating back to 1842.

Updated: 2021-10-21